sensor_id;sensor_type;location;lat;lon;timestamp;temperature;humidity
19803;DHT22;66074;50.764;6.090;2023-04-01T00:01:26;10.40;99.90
19803;DHT22;66074;50.764;6.090;2023-04-01T00:03:52;10.50;99.90
19803;DHT22;66074;50.764;6.090;2023-04-01T00:06:19;10.40;99.90
19803;DHT22;66074;50.764;6.090;2023-04-01T00:08:45;10.40;99.90
19803;DHT22;66074;50.764;6.090;2023-04-01T00:11:11;10.30;99.90
19803;DHT22;66074;50.764;6.090;2023-04-01T00:13:36;10.40;99.90
19803;DHT22;66074;50.764;6.090;2023-04-01T00:16:02;10.30;99.90
19803;DHT22;66074;50.764;6.090;2023-04-01T00:18:29;10.40;99.90
19803;DHT22;66074;50.764;6.090;2023-04-01T00:20:55;10.40;99.90
19803;DHT22;66074;50.764;6.090;2023-04-01T00:23:21;10.30;99.90
19803;DHT22;66074;50.764;6.090;2023-04-01T00:25:47;10.40;99.90
19803;DHT22;66074;50.764;6.090;2023-04-01T00:28:18;10.40;99.90
19803;DHT22;66074;50.764;6.090;2023-04-01T00:30:44;10.40;99.90
19803;DHT22;66074;50.764;6.090;2023-04-01T00:33:10;10.40;99.90
19803;DHT22;66074;50.764;6.090;2023-04-01T00:35:36;10.40;99.90
19803;DHT22;66074;50.764;6.090;2023-04-01T00:38:02;10.40;99.90
19803;DHT22;66074;50.764;6.090;2023-04-01T00:40:30;10.40;99.90
19803;DHT22;66074;50.764;6.090;2023-04-01T00:42:56;10.30;99.90
19803;DHT22;66074;50.764;6.090;2023-04-01T00:45:28;10.30;99.90
19803;DHT22;66074;50.764;6.090;2023-04-01T00:47:55;10.30;99.90
19803;DHT22;66074;50.764;6.090;2023-04-01T00:50:24;10.30;99.90
19803;DHT22;66074;50.764;6.090;2023-04-01T00:52:52;10.40;99.90
19803;DHT22;66074;50.764;6.090;2023-04-01T00:55:19;10.30;99.90
19803;DHT22;66074;50.764;6.090;2023-04-01T00:57:46;10.30;99.90
19803;DHT22;66074;50.764;6.090;2023-04-01T01:00:13;10.20;99.90
19803;DHT22;66074;50.764;6.090;2023-04-01T01:02:44;10.20;99.90
19803;DHT22;66074;50.764;6.090;2023-04-01T01:05:14;10.20;99.90
19803;DHT22;66074;50.764;6.090;2023-04-01T01:10:34;10.20;99.90
19803;DHT22;66074;50.764;6.090;2023-04-01T01:15:58;10.20;99.90
19803;DHT22;66074;50.764;6.090;2023-04-01T01:18:35;10.20;99.90
19803;DHT22;66074;50.764;6.090;2023-04-01T01:29:11;10.20;99.90
19803;DHT22;66074;50.764;6.090;2023-04-01T01:31:44;10.20;99.90
19803;DHT22;66074;50.764;6.090;2023-04-01T01:36:53;10.10;99.90
19803;DHT22;66074;50.764;6.090;2023-04-01T01:39:22;10.10;99.90
19803;DHT22;66074;50.764;6.090;2023-04-01T01:41:53;10.10;99.90
19803;DHT22;66074;50.764;6.090;2023-04-01T01:44:21;10.10;99.90
19803;DHT22;66074;50.764;6.090;2023-04-01T01:46:47;10.10;99.90
19803;DHT22;66074;50.764;6.090;2023-04-01T01:49:15;10.10;99.90
19803;DHT22;66074;50.764;6.090;2023-04-01T01:51:42;10.10;99.90
19803;DHT22;66074;50.764;6.090;2023-04-01T01:54:16;10.10;99.90
19803;DHT22;66074;50.764;6.090;2023-04-01T01:56:45;10.10;99.90
19803;DHT22;66074;50.764;6.090;2023-04-01T01:59:15;10.10;99.90
19803;DHT22;66074;50.764;6.090;2023-04-01T02:01:48;10.10;99.90
19803;DHT22;66074;50.764;6.090;2023-04-01T02:04:16;10.10;99.90
19803;DHT22;66074;50.764;6.090;2023-04-01T02:06:49;10.10;99.90
19803;DHT22;66074;50.764;6.090;2023-04-01T02:09:18;10.20;99.90
19803;DHT22;66074;50.764;6.090;2023-04-01T02:19:18;10.10;99.90
19803;DHT22;66074;50.764;6.090;2023-04-01T02:21:50;10.10;99.90
19803;DHT22;66074;50.764;6.090;2023-04-01T02:24:19;10.10;99.90
19803;DHT22;66074;50.764;6.090;2023-04-01T02:26:49;10.10;99.90
19803;DHT22;66074;50.764;6.090;2023-04-01T02:29:17;10.10;99.90
19803;DHT22;66074;50.764;6.090;2023-04-01T02:31:43;10.10;99.90
19803;DHT22;66074;50.764;6.090;2023-04-01T02:34:09;10.10;99.90
19803;DHT22;66074;50.764;6.090;2023-04-01T02:36:35;10.20;99.90
19803;DHT22;66074;50.764;6.090;2023-04-01T02:39:02;10.10;99.90
19803;DHT22;66074;50.764;6.090;2023-04-01T02:41:29;10.10;99.90
19803;DHT22;66074;50.764;6.090;2023-04-01T02:43:55;10.10;99.90
19803;DHT22;66074;50.764;6.090;2023-04-01T02:46:22;10.10;99.90
19803;DHT22;66074;50.764;6.090;2023-04-01T02:48:48;10.10;99.90
19803;DHT22;66074;50.764;6.090;2023-04-01T02:51:13;10.10;99.90
19803;DHT22;66074;50.764;6.090;2023-04-01T02:53:39;10.10;99.90
19803;DHT22;66074;50.764;6.090;2023-04-01T02:56:05;10.10;99.90
19803;DHT22;66074;50.764;6.090;2023-04-01T02:58:30;10.10;99.90
19803;DHT22;66074;50.764;6.090;2023-04-01T03:00:56;10.10;99.90
19803;DHT22;66074;50.764;6.090;2023-04-01T03:03:22;10.20;99.90
19803;DHT22;66074;50.764;6.090;2023-04-01T03:05:47;10.20;99.90
19803;DHT22;66074;50.764;6.090;2023-04-01T03:08:13;10.10;99.90
19803;DHT22;66074;50.764;6.090;2023-04-01T03:10:38;10.10;99.90
19803;DHT22;66074;50.764;6.090;2023-04-01T03:13:04;10.10;99.90
19803;DHT22;66074;50.764;6.090;2023-04-01T03:15:30;10.10;99.90
19803;DHT22;66074;50.764;6.090;2023-04-01T03:17:56;10.10;99.90
19803;DHT22;66074;50.764;6.090;2023-04-01T03:20:21;10.10;99.90
19803;DHT22;66074;50.764;6.090;2023-04-01T03:22:47;10.10;99.90
19803;DHT22;66074;50.764;6.090;2023-04-01T03:25:12;10.10;99.90
19803;DHT22;66074;50.764;6.090;2023-04-01T03:27:38;10.10;99.90
19803;DHT22;66074;50.764;6.090;2023-04-01T03:30:05;10.10;99.90
19803;DHT22;66074;50.764;6.090;2023-04-01T03:32:31;10.10;99.90
19803;DHT22;66074;50.764;6.090;2023-04-01T03:34:56;10.10;99.90
19803;DHT22;66074;50.764;6.090;2023-04-01T03:37:23;10.10;99.90
19803;DHT22;66074;50.764;6.090;2023-04-01T03:39:48;10.10;99.90
19803;DHT22;66074;50.764;6.090;2023-04-01T03:42:14;10.10;99.90
19803;DHT22;66074;50.764;6.090;2023-04-01T03:44:40;10.00;99.90
19803;DHT22;66074;50.764;6.090;2023-04-01T03:47:06;10.10;99.90
19803;DHT22;66074;50.764;6.090;2023-04-01T03:49:33;10.10;99.90
19803;DHT22;66074;50.764;6.090;2023-04-01T03:51:58;10.10;99.90
19803;DHT22;66074;50.764;6.090;2023-04-01T03:54:24;10.10;99.90
19803;DHT22;66074;50.764;6.090;2023-04-01T03:56:50;10.10;99.90
19803;DHT22;66074;50.764;6.090;2023-04-01T03:59:16;10.10;99.90
19803;DHT22;66074;50.764;6.090;2023-04-01T04:01:41;10.10;99.90
19803;DHT22;66074;50.764;6.090;2023-04-01T04:04:07;10.10;99.90
19803;DHT22;66074;50.764;6.090;2023-04-01T04:06:33;10.10;99.90
19803;DHT22;66074;50.764;6.090;2023-04-01T04:08:59;10.10;99.90
19803;DHT22;66074;50.764;6.090;2023-04-01T04:11:24;10.10;99.90
19803;DHT22;66074;50.764;6.090;2023-04-01T04:13:51;10.10;99.90
19803;DHT22;66074;50.764;6.090;2023-04-01T04:16:18;10.10;99.90
19803;DHT22;66074;50.764;6.090;2023-04-01T04:18:43;10.10;99.90
19803;DHT22;66074;50.764;6.090;2023-04-01T04:21:12;10.10;99.90
19803;DHT22;66074;50.764;6.090;2023-04-01T04:23:38;10.10;99.90
19803;DHT22;66074;50.764;6.090;2023-04-01T04:26:06;10.20;99.90
19803;DHT22;66074;50.764;6.090;2023-04-01T04:28:33;10.20;99.90
19803;DHT22;66074;50.764;6.090;2023-04-01T04:30:59;10.20;99.90
19803;DHT22;66074;50.764;6.090;2023-04-01T04:33:25;10.20;99.90
19803;DHT22;66074;50.764;6.090;2023-04-01T04:35:51;10.20;99.90
19803;DHT22;66074;50.764;6.090;2023-04-01T04:38:17;10.20;99.90
19803;DHT22;66074;50.764;6.090;2023-04-01T04:40:43;10.20;99.90
19803;DHT22;66074;50.764;6.090;2023-04-01T04:43:11;10.20;99.90
19803;DHT22;66074;50.764;6.090;2023-04-01T04:45:37;10.20;99.90
19803;DHT22;66074;50.764;6.090;2023-04-01T04:48:03;10.20;99.90
19803;DHT22;66074;50.764;6.090;2023-04-01T04:50:28;10.20;99.90
19803;DHT22;66074;50.764;6.090;2023-04-01T04:52:54;10.20;99.90
19803;DHT22;66074;50.764;6.090;2023-04-01T04:55:20;10.10;99.90
19803;DHT22;66074;50.764;6.090;2023-04-01T04:57:46;10.10;99.90
19803;DHT22;66074;50.764;6.090;2023-04-01T05:00:11;10.10;99.90
19803;DHT22;66074;50.764;6.090;2023-04-01T05:02:37;10.10;99.90
19803;DHT22;66074;50.764;6.090;2023-04-01T05:05:03;10.10;99.90
19803;DHT22;66074;50.764;6.090;2023-04-01T05:07:29;10.10;99.90
19803;DHT22;66074;50.764;6.090;2023-04-01T05:09:55;10.10;99.90
19803;DHT22;66074;50.764;6.090;2023-04-01T05:12:21;10.10;99.90
19803;DHT22;66074;50.764;6.090;2023-04-01T05:14:46;10.10;99.90
19803;DHT22;66074;50.764;6.090;2023-04-01T05:17:12;10.10;99.90
19803;DHT22;66074;50.764;6.090;2023-04-01T05:19:38;10.10;99.90
19803;DHT22;66074;50.764;6.090;2023-04-01T05:22:05;10.00;99.90
19803;DHT22;66074;50.764;6.090;2023-04-01T05:24:31;10.00;99.90
19803;DHT22;66074;50.764;6.090;2023-04-01T05:26:57;10.00;99.90
19803;DHT22;66074;50.764;6.090;2023-04-01T05:29:26;10.00;99.90
19803;DHT22;66074;50.764;6.090;2023-04-01T05:31:52;10.00;99.90
19803;DHT22;66074;50.764;6.090;2023-04-01T05:34:17;10.00;99.90
19803;DHT22;66074;50.764;6.090;2023-04-01T05:36:43;9.90;99.90
19803;DHT22;66074;50.764;6.090;2023-04-01T05:39:09;10.00;99.90
19803;DHT22;66074;50.764;6.090;2023-04-01T05:41:36;10.00;99.90
19803;DHT22;66074;50.764;6.090;2023-04-01T05:44:02;10.00;99.90
19803;DHT22;66074;50.764;6.090;2023-04-01T05:46:28;10.00;99.90
19803;DHT22;66074;50.764;6.090;2023-04-01T05:48:53;10.00;99.90
19803;DHT22;66074;50.764;6.090;2023-04-01T05:51:19;10.00;99.90
19803;DHT22;66074;50.764;6.090;2023-04-01T05:53:45;10.00;99.90
19803;DHT22;66074;50.764;6.090;2023-04-01T05:56:10;9.90;99.90
19803;DHT22;66074;50.764;6.090;2023-04-01T05:58:37;9.90;99.90
19803;DHT22;66074;50.764;6.090;2023-04-01T06:01:08;9.90;99.90
19803;DHT22;66074;50.764;6.090;2023-04-01T06:03:35;9.90;99.90
19803;DHT22;66074;50.764;6.090;2023-04-01T06:06:01;9.90;99.90
19803;DHT22;66074;50.764;6.090;2023-04-01T06:08:27;10.00;99.90
19803;DHT22;66074;50.764;6.090;2023-04-01T06:16:49;10.00;99.90
19803;DHT22;66074;50.764;6.090;2023-04-01T06:27:59;10.10;99.90
19803;DHT22;66074;50.764;6.090;2023-04-01T06:33:51;10.20;99.90
19803;DHT22;66074;50.764;6.090;2023-04-01T06:44:43;10.20;99.90
19803;DHT22;66074;50.764;6.090;2023-04-01T06:50:15;10.20;99.90
19803;DHT22;66074;50.764;6.090;2023-04-01T06:53:12;10.30;99.90
19803;DHT22;66074;50.764;6.090;2023-04-01T06:56:04;10.30;99.90
19803;DHT22;66074;50.764;6.090;2023-04-01T06:58:53;10.30;99.90
19803;DHT22;66074;50.764;6.090;2023-04-01T07:01:39;10.40;99.90
19803;DHT22;66074;50.764;6.090;2023-04-01T07:04:11;10.40;99.90
19803;DHT22;66074;50.764;6.090;2023-04-01T07:06:59;10.40;99.90
19803;DHT22;66074;50.764;6.090;2023-04-01T07:09:39;10.50;99.90
19803;DHT22;66074;50.764;6.090;2023-04-01T07:14:58;10.60;99.90
19803;DHT22;66074;50.764;6.090;2023-04-01T07:17:30;10.60;99.90
19803;DHT22;66074;50.764;6.090;2023-04-01T07:22:52;10.50;99.90
19803;DHT22;66074;50.764;6.090;2023-04-01T07:25:24;10.60;99.90
19803;DHT22;66074;50.764;6.090;2023-04-01T07:27:53;10.60;99.90
19803;DHT22;66074;50.764;6.090;2023-04-01T07:30:23;10.50;99.90
19803;DHT22;66074;50.764;6.090;2023-04-01T07:35:46;10.60;99.90
19803;DHT22;66074;50.764;6.090;2023-04-01T07:38:32;10.60;99.90
19803;DHT22;66074;50.764;6.090;2023-04-01T07:41:49;10.50;99.90
19803;DHT22;66074;50.764;6.090;2023-04-01T07:46:49;10.50;99.90
19803;DHT22;66074;50.764;6.090;2023-04-01T08:00:39;10.50;99.90
19803;DHT22;66074;50.764;6.090;2023-04-01T08:06:42;10.50;99.90
19803;DHT22;66074;50.764;6.090;2023-04-01T08:09:37;10.50;99.90
19803;DHT22;66074;50.764;6.090;2023-04-01T08:12:13;10.60;99.90
19803;DHT22;66074;50.764;6.090;2023-04-01T08:20:47;10.60;99.90
19803;DHT22;66074;50.764;6.090;2023-04-01T08:23:20;10.70;99.90
19803;DHT22;66074;50.764;6.090;2023-04-01T08:28:46;10.80;99.90
19803;DHT22;66074;50.764;6.090;2023-04-01T08:31:22;10.80;99.90
19803;DHT22;66074;50.764;6.090;2023-04-01T08:33:50;10.80;99.90
19803;DHT22;66074;50.764;6.090;2023-04-01T08:36:28;10.80;99.90
19803;DHT22;66074;50.764;6.090;2023-04-01T08:39:08;10.80;99.90
19803;DHT22;66074;50.764;6.090;2023-04-01T08:42:08;10.80;99.90
19803;DHT22;66074;50.764;6.090;2023-04-01T08:47:54;10.90;99.90
19803;DHT22;66074;50.764;6.090;2023-04-01T08:50:50;11.00;99.90
19803;DHT22;66074;50.764;6.090;2023-04-01T09:10:46;11.00;99.90
19803;DHT22;66074;50.764;6.090;2023-04-01T09:13:35;11.00;99.90
19803;DHT22;66074;50.764;6.090;2023-04-01T09:18:56;11.00;99.90
19803;DHT22;66074;50.764;6.090;2023-04-01T09:29:41;11.30;99.90
19803;DHT22;66074;50.764;6.090;2023-04-01T09:32:43;11.30;99.90
19803;DHT22;66074;50.764;6.090;2023-04-01T09:40:46;11.40;99.90
19803;DHT22;66074;50.764;6.090;2023-04-01T09:46:12;11.40;99.90
19803;DHT22;66074;50.764;6.090;2023-04-01T09:48:57;11.40;99.90
19803;DHT22;66074;50.764;6.090;2023-04-01T09:51:51;11.40;99.90
19803;DHT22;66074;50.764;6.090;2023-04-01T10:08:57;11.30;99.90
19803;DHT22;66074;50.764;6.090;2023-04-01T10:11:52;11.30;99.90
19803;DHT22;66074;50.764;6.090;2023-04-01T10:23:32;11.60;99.90
19803;DHT22;66074;50.764;6.090;2023-04-01T10:31:47;11.60;99.90
19803;DHT22;66074;50.764;6.090;2023-04-01T10:37:42;11.70;99.90
19803;DHT22;66074;50.764;6.090;2023-04-01T11:12:00;12.20;99.90
19803;DHT22;66074;50.764;6.090;2023-04-01T11:26:02;11.90;99.90
19803;DHT22;66074;50.764;6.090;2023-04-01T11:31:36;11.90;99.90
19803;DHT22;66074;50.764;6.090;2023-04-01T11:37:27;11.80;99.90
19803;DHT22;66074;50.764;6.090;2023-04-01T11:40:12;11.70;99.90
19803;DHT22;66074;50.764;6.090;2023-04-01T11:43:42;11.70;99.90
19803;DHT22;66074;50.764;6.090;2023-04-01T11:49:09;11.80;99.90
19803;DHT22;66074;50.764;6.090;2023-04-01T11:51:46;11.90;99.90
19803;DHT22;66074;50.764;6.090;2023-04-01T11:54:59;12.00;99.90
19803;DHT22;66074;50.764;6.090;2023-04-01T11:57:31;12.10;99.90
19803;DHT22;66074;50.764;6.090;2023-04-01T12:08:15;12.50;99.90
19803;DHT22;66074;50.764;6.090;2023-04-01T12:19:41;12.50;99.90
19803;DHT22;66074;50.764;6.090;2023-04-01T12:55:42;12.50;99.90
19803;DHT22;66074;50.764;6.090;2023-04-01T12:58:32;12.50;99.90
19803;DHT22;66074;50.764;6.090;2023-04-01T13:20:23;12.10;99.90
19803;DHT22;66074;50.764;6.090;2023-04-01T13:26:13;12.10;99.90
19803;DHT22;66074;50.764;6.090;2023-04-01T13:34:59;12.50;99.90
19803;DHT22;66074;50.764;6.090;2023-04-01T13:40:28;12.50;99.90
19803;DHT22;66074;50.764;6.090;2023-04-01T13:46:10;12.70;99.90
19803;DHT22;66074;50.764;6.090;2023-04-01T13:59:32;12.50;99.90
19803;DHT22;66074;50.764;6.090;2023-04-01T14:30:43;12.50;99.90
19803;DHT22;66074;50.764;6.090;2023-04-01T14:49:44;11.90;99.90
19803;DHT22;66074;50.764;6.090;2023-04-01T14:54:50;11.90;99.90
19803;DHT22;66074;50.764;6.090;2023-04-01T14:57:24;12.00;99.90
19803;DHT22;66074;50.764;6.090;2023-04-01T15:00:07;12.00;99.90
19803;DHT22;66074;50.764;6.090;2023-04-01T15:08:27;12.00;99.90
19803;DHT22;66074;50.764;6.090;2023-04-01T15:17:01;11.90;99.90
19803;DHT22;66074;50.764;6.090;2023-04-01T15:19:39;11.90;99.90
19803;DHT22;66074;50.764;6.090;2023-04-01T15:27:51;12.10;99.90
19803;DHT22;66074;50.764;6.090;2023-04-01T15:36:38;12.10;99.90
19803;DHT22;66074;50.764;6.090;2023-04-01T15:39:24;12.00;99.90
19803;DHT22;66074;50.764;6.090;2023-04-01T15:42:04;12.00;99.90
19803;DHT22;66074;50.764;6.090;2023-04-01T15:55:27;11.70;99.90
19803;DHT22;66074;50.764;6.090;2023-04-01T16:00:45;11.60;99.90
19803;DHT22;66074;50.764;6.090;2023-04-01T16:03:42;11.60;99.90
19803;DHT22;66074;50.764;6.090;2023-04-01T16:12:15;11.50;99.90
19803;DHT22;66074;50.764;6.090;2023-04-01T16:20:58;11.50;99.90
19803;DHT22;66074;50.764;6.090;2023-04-01T16:23:39;11.40;99.90
19803;DHT22;66074;50.764;6.090;2023-04-01T16:26:22;11.40;99.90
19803;DHT22;66074;50.764;6.090;2023-04-01T16:29:10;11.40;99.90
19803;DHT22;66074;50.764;6.090;2023-04-01T16:31:54;11.30;99.90
19803;DHT22;66074;50.764;6.090;2023-04-01T16:34:24;11.30;99.90
19803;DHT22;66074;50.764;6.090;2023-04-01T16:36:55;11.20;99.90
19803;DHT22;66074;50.764;6.090;2023-04-01T16:42:24;11.30;99.90
19803;DHT22;66074;50.764;6.090;2023-04-01T16:44:56;11.20;99.90
19803;DHT22;66074;50.764;6.090;2023-04-01T16:47:30;11.20;99.90
19803;DHT22;66074;50.764;6.090;2023-04-01T16:50:22;11.20;99.90
19803;DHT22;66074;50.764;6.090;2023-04-01T16:58:10;11.10;99.90
19803;DHT22;66074;50.764;6.090;2023-04-01T17:00:48;11.10;99.90
19803;DHT22;66074;50.764;6.090;2023-04-01T17:03:32;11.10;99.90
19803;DHT22;66074;50.764;6.090;2023-04-01T17:11:19;11.20;99.90
19803;DHT22;66074;50.764;6.090;2023-04-01T17:13:58;11.20;99.90
19803;DHT22;66074;50.764;6.090;2023-04-01T17:16:57;11.20;99.90
19803;DHT22;66074;50.764;6.090;2023-04-01T17:20:03;11.10;99.90
19803;DHT22;66074;50.764;6.090;2023-04-01T17:27:50;11.10;99.90
19803;DHT22;66074;50.764;6.090;2023-04-01T17:33:21;10.90;99.90
19803;DHT22;66074;50.764;6.090;2023-04-01T17:38:48;10.90;99.90
19803;DHT22;66074;50.764;6.090;2023-04-01T17:51:38;10.90;99.90
19803;DHT22;66074;50.764;6.090;2023-04-01T17:59:39;10.80;99.90
19803;DHT22;66074;50.764;6.090;2023-04-01T18:03:06;10.80;99.90
19803;DHT22;66074;50.764;6.090;2023-04-01T18:08:29;10.90;99.90
19803;DHT22;66074;50.764;6.090;2023-04-01T18:11:25;10.80;99.90
19803;DHT22;66074;50.764;6.090;2023-04-01T18:24:49;10.60;99.90
19803;DHT22;66074;50.764;6.090;2023-04-01T18:27:27;10.60;99.90
19803;DHT22;66074;50.764;6.090;2023-04-01T18:40:46;10.50;99.90
19803;DHT22;66074;50.764;6.090;2023-04-01T18:43:32;10.50;99.90
19803;DHT22;66074;50.764;6.090;2023-04-01T18:49:29;10.40;99.90
19803;DHT22;66074;50.764;6.090;2023-04-01T18:51:59;10.40;99.90
19803;DHT22;66074;50.764;6.090;2023-04-01T18:54:33;10.40;99.90
19803;DHT22;66074;50.764;6.090;2023-04-01T18:57:19;10.40;99.90
19803;DHT22;66074;50.764;6.090;2023-04-01T18:59:56;10.40;99.90
19803;DHT22;66074;50.764;6.090;2023-04-01T19:02:29;10.40;99.90
19803;DHT22;66074;50.764;6.090;2023-04-01T19:07:42;10.50;99.90
19803;DHT22;66074;50.764;6.090;2023-04-01T19:21:01;10.50;99.90
19803;DHT22;66074;50.764;6.090;2023-04-01T19:26:32;10.50;99.90
19803;DHT22;66074;50.764;6.090;2023-04-01T19:29:13;10.50;99.90
19803;DHT22;66074;50.764;6.090;2023-04-01T19:34:40;10.40;99.90
19803;DHT22;66074;50.764;6.090;2023-04-01T19:37:40;10.30;99.90
19803;DHT22;66074;50.764;6.090;2023-04-01T19:40:30;10.30;99.90
19803;DHT22;66074;50.764;6.090;2023-04-01T19:57:05;10.30;99.90
19803;DHT22;66074;50.764;6.090;2023-04-01T20:04:45;10.30;99.90
19803;DHT22;66074;50.764;6.090;2023-04-01T20:07:27;10.30;99.90
19803;DHT22;66074;50.764;6.090;2023-04-01T20:10:20;10.30;99.90
19803;DHT22;66074;50.764;6.090;2023-04-01T20:13:11;10.30;99.90
19803;DHT22;66074;50.764;6.090;2023-04-01T20:15:47;10.30;99.90
19803;DHT22;66074;50.764;6.090;2023-04-01T20:19:26;10.30;99.90
19803;DHT22;66074;50.764;6.090;2023-04-01T20:21:42;10.30;99.90
19803;DHT22;66074;50.764;6.090;2023-04-01T20:24:19;10.30;99.90
19803;DHT22;66074;50.764;6.090;2023-04-01T20:27:20;10.20;99.90
19803;DHT22;66074;50.764;6.090;2023-04-01T20:29:59;10.20;99.90
19803;DHT22;66074;50.764;6.090;2023-04-01T20:35:38;10.20;99.90
19803;DHT22;66074;50.764;6.090;2023-04-01T20:41:27;10.20;99.90
19803;DHT22;66074;50.764;6.090;2023-04-01T20:49:33;10.20;99.90
19803;DHT22;66074;50.764;6.090;2023-04-01T20:55:13;10.20;99.90
19803;DHT22;66074;50.764;6.090;2023-04-01T21:13:58;10.30;99.90
19803;DHT22;66074;50.764;6.090;2023-04-01T21:16:48;10.30;99.90
19803;DHT22;66074;50.764;6.090;2023-04-01T21:41:17;10.30;99.90
19803;DHT22;66074;50.764;6.090;2023-04-01T21:44:10;10.30;99.90
19803;DHT22;66074;50.764;6.090;2023-04-01T21:56:14;10.40;99.90
19803;DHT22;66074;50.764;6.090;2023-04-01T22:09:47;10.30;99.90
19803;DHT22;66074;50.764;6.090;2023-04-01T22:12:43;10.20;99.90
19803;DHT22;66074;50.764;6.090;2023-04-01T22:15:28;10.20;99.90
19803;DHT22;66074;50.764;6.090;2023-04-01T22:20:55;10.20;99.90
19803;DHT22;66074;50.764;6.090;2023-04-01T22:28:36;10.20;99.90
19803;DHT22;66074;50.764;6.090;2023-04-01T22:31:05;10.20;99.90
19803;DHT22;66074;50.764;6.090;2023-04-01T22:44:03;10.00;99.90
19803;DHT22;66074;50.764;6.090;2023-04-01T22:49:15;9.90;99.90
19803;DHT22;66074;50.764;6.090;2023-04-01T22:54:51;9.90;99.90
19803;DHT22;66074;50.764;6.090;2023-04-01T23:02:39;9.80;99.90
19803;DHT22;66074;50.764;6.090;2023-04-01T23:05:06;9.80;99.90
19803;DHT22;66074;50.764;6.090;2023-04-01T23:10:58;9.70;99.90
19803;DHT22;66074;50.764;6.090;2023-04-01T23:13:31;9.70;99.90
19803;DHT22;66074;50.764;6.090;2023-04-01T23:15:59;9.70;99.90
19803;DHT22;66074;50.764;6.090;2023-04-01T23:18:46;9.70;99.90
19803;DHT22;66074;50.764;6.090;2023-04-01T23:21:21;9.70;99.90
19803;DHT22;66074;50.764;6.090;2023-04-01T23:26:55;9.60;99.90
19803;DHT22;66074;50.764;6.090;2023-04-01T23:29:24;9.60;99.90
19803;DHT22;66074;50.764;6.090;2023-04-01T23:32:17;9.60;99.90
19803;DHT22;66074;50.764;6.090;2023-04-01T23:34:54;9.60;99.90
19803;DHT22;66074;50.764;6.090;2023-04-01T23:37:22;9.40;99.90
19803;DHT22;66074;50.764;6.090;2023-04-01T23:39:58;9.50;99.90
19803;DHT22;66074;50.764;6.090;2023-04-01T23:42:29;9.40;99.90
19803;DHT22;66074;50.764;6.090;2023-04-01T23:44:58;9.40;99.90
19803;DHT22;66074;50.764;6.090;2023-04-01T23:47:28;9.40;99.90
19803;DHT22;66074;50.764;6.090;2023-04-01T23:50:01;9.40;99.90
19803;DHT22;66074;50.764;6.090;2023-04-01T23:52:37;9.50;99.90
19803;DHT22;66074;50.764;6.090;2023-04-01T23:57:36;9.30;99.90
